Time;durP1;ratioP1;P1;durP2;ratioP2;P2;SDS_P1;SDS_P2;PMS_P1;PMS_P2;Temp;Humidity;BMP_temperature;BMP_pressure;BME280_temperature;BME280_humidity;BME280_pressure;Samples;Min_cycle;Max_cycle;Signal;HPM_P1;HPM_P2
2021/01/09 00:02:25;;;;;;;8.98;2.22;;;2.00;99.90;;;;;;5067044;28;20025;-78
2021/01/09 00:04:50;;;;;;;4.82;2.67;;;2.10;99.90;;;;;;5084547;28;20042;-79
2021/01/09 00:07:16;;;;;;;5.63;2.25;;;2.00;99.90;;;;;;5066975;28;20197;-79
2021/01/09 00:09:41;;;;;;;3.53;1.80;;;2.00;99.90;;;;;;5085149;28;20035;-80
2021/01/09 00:12:11;;;;;;;3.92;1.92;;;2.00;99.90;;;;;;5084764;28;20054;-78
2021/01/09 00:14:37;;;;;;;5.50;2.60;;;2.00;99.90;;;;;;5067153;28;20519;-79
2021/01/09 00:17:03;;;;;;;5.25;2.70;;;2.00;99.90;;;;;;5084997;28;20063;-79
2021/01/09 00:19:29;;;;;;;4.25;2.05;;;2.10;99.90;;;;;;5084748;28;20028;-79
2021/01/09 00:21:56;;;;;;;4.55;2.25;;;2.10;99.90;;;;;;5066806;28;20025;-78
2021/01/09 00:24:21;;;;;;;4.78;2.20;;;2.10;99.90;;;;;;5084787;28;20903;-79
2021/01/09 00:26:47;;;;;;;2.92;1.90;;;2.10;99.90;;;;;;5084683;28;20033;-78
2021/01/09 00:29:13;;;;;;;6.68;2.83;;;2.10;99.90;;;;;;5067070;28;20029;-78
2021/01/09 00:31:38;;;;;;;4.75;2.70;;;2.10;99.90;;;;;;5066872;28;20031;-78
2021/01/09 00:34:04;;;;;;;3.45;1.63;;;2.00;99.90;;;;;;5084486;28;20526;-80
2021/01/09 00:36:30;;;;;;;4.90;2.53;;;2.00;99.90;;;;;;5084949;28;20029;-79
2021/01/09 00:38:56;;;;;;;5.93;2.30;;;2.10;99.90;;;;;;5084747;28;20029;-79
2021/01/09 00:41:39;;;;;;;5.57;1.73;;;2.10;99.90;;;;;;5066532;28;20039;-80
2021/01/09 00:44:07;;;;;;;3.25;2.25;;;2.10;99.90;;;;;;5066520;28;20112;-80
2021/01/09 00:46:32;;;;;;;3.90;1.65;;;2.10;99.90;;;;;;5084857;28;20052;-79
2021/01/09 00:48:58;;;;;;;7.22;2.80;;;2.10;99.90;;;;;;5066638;28;20361;-79
2021/01/09 00:51:24;;;;;;;6.65;2.40;;;2.00;99.90;;;;;;5066611;28;20032;-80
2021/01/09 00:53:49;;;;;;;5.25;2.15;;;2.10;99.90;;;;;;5066458;28;20020;-79
2021/01/09 00:56:16;;;;;;;6.95;2.25;;;2.10;99.90;;;;;;5067734;28;20081;-78
2021/01/09 00:58:42;;;;;;;3.15;1.90;;;2.10;99.90;;;;;;5068557;28;20093;-78
2021/01/09 01:01:08;;;;;;;6.38;2.45;;;2.10;99.90;;;;;;5068891;28;20024;-78
2021/01/09 01:03:34;;;;;;;4.70;2.35;;;2.10;99.90;;;;;;5085939;28;20055;-78
2021/01/09 01:05:59;;;;;;;8.07;3.08;;;2.10;99.90;;;;;;5070996;28;20041;-79
2021/01/09 01:08:25;;;;;;;3.85;2.17;;;2.00;99.90;;;;;;5088183;28;20069;-79
2021/01/09 01:10:54;;;;;;;3.92;1.67;;;2.00;99.90;;;;;;5088038;28;20032;-78
2021/01/09 01:13:20;;;;;;;4.47;2.35;;;2.00;99.90;;;;;;5070003;28;20025;-78
2021/01/09 01:15:46;;;;;;;5.90;2.20;;;2.10;99.90;;;;;;5069640;28;20060;-78
2021/01/09 01:18:11;;;;;;;4.00;2.63;;;2.10;99.90;;;;;;5069963;28;20028;-77
2021/01/09 01:20:37;;;;;;;6.72;2.38;;;2.00;99.90;;;;;;5069875;28;20092;-78
2021/01/09 01:23:02;;;;;;;4.13;1.75;;;2.10;99.90;;;;;;5069707;28;20070;-78
2021/01/09 01:25:28;;;;;;;2.75;1.58;;;2.00;99.90;;;;;;5069808;28;20032;-79
2021/01/09 01:27:54;;;;;;;4.78;1.90;;;2.00;99.90;;;;;;5087684;28;20035;-80
2021/01/09 01:30:19;;;;;;;4.85;1.98;;;2.00;99.90;;;;;;5086166;28;20031;-79
2021/01/09 01:32:45;;;;;;;4.95;2.45;;;1.90;99.90;;;;;;5069826;28;20119;-77
2021/01/09 01:35:11;;;;;;;5.82;2.70;;;1.80;99.90;;;;;;5069476;28;20020;-79
2021/01/09 01:37:36;;;;;;;5.22;2.15;;;1.70;99.90;;;;;;5087428;28;20082;-78
2021/01/09 01:40:06;;;;;;;4.28;2.00;;;1.70;99.90;;;;;;5069726;28;20084;-79
2021/01/09 01:42:32;;;;;;;4.20;2.40;;;1.60;99.90;;;;;;5087373;28;20057;-79
2021/01/09 01:44:58;;;;;;;6.47;2.78;;;1.60;99.90;;;;;;5087181;28;20040;-78
2021/01/09 01:47:24;;;;;;;5.65;2.53;;;1.60;99.90;;;;;;5069316;28;20020;-80
2021/01/09 01:49:51;;;;;;;3.10;1.60;;;1.50;99.90;;;;;;5087156;28;20080;-78
2021/01/09 01:52:17;;;;;;;9.13;2.05;;;1.50;99.90;;;;;;5069127;28;20086;-79
2021/01/09 01:54:44;;;;;;;2.72;1.55;;;1.50;99.90;;;;;;5087453;28;20029;-79
2021/01/09 01:57:12;;;;;;;3.15;1.70;;;1.50;99.90;;;;;;5069060;28;20028;-78
2021/01/09 01:59:38;;;;;;;4.45;1.90;;;1.50;99.90;;;;;;5069480;28;20165;-78
2021/01/09 02:02:06;;;;;;;5.82;1.63;;;1.50;99.90;;;;;;5069184;28;20024;-77
2021/01/09 02:04:32;;;;;;;7.57;2.28;;;1.40;99.90;;;;;;5086920;28;20041;-79
2021/01/09 02:07:02;;;;;;;3.88;2.22;;;1.40;99.90;;;;;;5069088;28;20144;-78
2021/01/09 02:09:32;;;;;;;3.88;1.95;;;1.40;99.90;;;;;;5069052;28;20059;-78
2021/01/09 02:12:07;;;;;;;7.18;3.13;;;1.30;99.90;;;;;;5086601;28;20044;-79
2021/01/09 02:14:38;;;;;;;6.47;2.50;;;1.20;99.90;;;;;;5087049;28;20024;-79
2021/01/09 02:17:05;;;;;;;5.32;2.55;;;1.20;99.90;;;;;;5069025;28;20024;-79
2021/01/09 02:19:34;;;;;;;3.30;1.95;;;1.20;99.90;;;;;;5086634;28;20487;-78
2021/01/09 02:22:02;;;;;;;6.97;2.72;;;1.20;99.90;;;;;;5068828;28;20070;-77
2021/01/09 02:24:28;;;;;;;3.80;2.33;;;1.20;99.90;;;;;;5068764;28;20043;-78
2021/01/09 02:26:54;;;;;;;4.07;1.92;;;1.20;99.90;;;;;;5068624;28;20025;-78
2021/01/09 02:29:22;;;;;;;3.03;1.63;;;1.20;99.90;;;;;;5068683;28;20074;-79
2021/01/09 02:32:00;;;;;;;5.47;2.28;;;1.20;99.90;;;;;;5068780;28;20028;-78
2021/01/09 02:34:29;;;;;;;5.78;2.72;;;1.20;99.90;;;;;;5086208;28;20020;-79
2021/01/09 02:36:56;;;;;;;8.35;3.00;;;1.30;99.90;;;;;;5068472;28;20043;-78
2021/01/09 02:39:24;;;;;;;4.07;2.47;;;1.30;99.90;;;;;;5086200;28;20043;-78
2021/01/09 02:41:51;;;;;;;5.32;2.17;;;1.30;99.90;;;;;;5085965;28;20020;-78
2021/01/09 02:44:16;;;;;;;5.90;2.45;;;1.30;99.90;;;;;;5086054;28;20059;-79
2021/01/09 02:46:42;;;;;;;6.68;2.58;;;1.30;99.90;;;;;;5068041;28;20028;-79
2021/01/09 02:49:08;;;;;;;4.35;2.17;;;1.30;99.90;;;;;;5068294;28;20032;-79
2021/01/09 02:51:34;;;;;;;6.90;2.58;;;1.30;99.90;;;;;;5086154;28;20089;-79
2021/01/09 02:54:00;;;;;;;7.80;3.35;;;1.30;99.90;;;;;;5068008;28;20029;-78
2021/01/09 02:56:25;;;;;;;6.32;2.28;;;1.30;99.90;;;;;;5085987;28;20032;-78
2021/01/09 02:58:51;;;;;;;6.15;2.85;;;1.30;99.90;;;;;;5086052;28;20119;-78
2021/01/09 03:01:16;;;;;;;4.35;2.10;;;1.30;99.90;;;;;;5067643;28;20028;-78
2021/01/09 03:03:42;;;;;;;3.40;2.00;;;1.30;99.90;;;;;;5067781;28;20028;-77
2021/01/09 03:06:08;;;;;;;3.40;1.67;;;1.30;99.90;;;;;;5085863;28;20503;-77
2021/01/09 03:08:33;;;;;;;4.82;2.33;;;1.40;99.90;;;;;;5085758;28;20058;-78
2021/01/09 03:10:59;;;;;;;6.38;2.92;;;1.40;99.90;;;;;;5067949;28;20460;-78
2021/01/09 03:13:25;;;;;;;5.22;2.75;;;1.50;99.90;;;;;;5085825;28;20060;-79
2021/01/09 03:15:50;;;;;;;7.57;2.55;;;1.50;99.90;;;;;;5085319;28;20035;-78
2021/01/09 03:18:16;;;;;;;11.95;3.58;;;1.50;99.90;;;;;;5085673;28;20399;-79
2021/01/09 03:20:41;;;;;;;5.80;3.13;;;1.50;99.90;;;;;;5067609;28;20062;-78
2021/01/09 03:23:07;;;;;;;3.45;1.65;;;1.60;99.90;;;;;;5067729;28;20035;-77
2021/01/09 03:25:33;;;;;;;3.08;1.90;;;1.60;99.90;;;;;;5085265;28;20104;-79
2021/01/09 03:27:58;;;;;;;4.35;2.53;;;1.60;99.90;;;;;;5085005;28;20032;-78
2021/01/09 03:30:24;;;;;;;6.07;2.75;;;1.70;99.90;;;;;;5085420;28;20084;-78
2021/01/09 03:32:50;;;;;;;4.97;2.33;;;1.70;99.90;;;;;;5085581;28;20032;-78
2021/01/09 03:35:16;;;;;;;4.60;2.20;;;1.80;99.90;;;;;;5084954;28;20025;-78
2021/01/09 03:37:42;;;;;;;4.43;2.08;;;1.80;99.90;;;;;;5067460;28;20032;-77
2021/01/09 03:40:08;;;;;;;3.88;1.55;;;1.70;99.90;;;;;;5085570;28;20483;-79
2021/01/09 03:42:34;;;;;;;2.80;1.77;;;1.80;99.90;;;;;;5067166;28;20025;-78
2021/01/09 03:44:59;;;;;;;5.85;2.33;;;1.80;99.90;;;;;;5067510;28;20039;-77
2021/01/09 03:47:26;;;;;;;4.05;1.65;;;1.80;99.90;;;;;;5067384;28;20055;-77
2021/01/09 03:49:51;;;;;;;3.38;1.60;;;1.80;99.90;;;;;;5084891;28;20393;-77
2021/01/09 03:52:17;;;;;;;3.63;2.42;;;1.80;99.90;;;;;;5067444;28;20033;-78
2021/01/09 03:54:42;;;;;;;5.30;2.03;;;1.80;99.90;;;;;;5067312;28;20523;-79
2021/01/09 03:57:08;;;;;;;4.90;2.13;;;1.90;99.90;;;;;;5084850;28;20035;-79
2021/01/09 03:59:34;;;;;;;4.40;2.42;;;1.90;99.90;;;;;;5085573;28;20088;-78
2021/01/09 04:02:00;;;;;;;5.38;2.85;;;1.80;99.90;;;;;;5071515;28;20046;-77
2021/01/09 04:04:25;;;;;;;4.47;3.10;;;1.80;99.90;;;;;;5067022;28;20123;-79
2021/01/09 04:06:51;;;;;;;3.42;2.03;;;1.80;99.90;;;;;;5066926;28;20021;-78
2021/01/09 04:09:16;;;;;;;5.80;2.25;;;1.80;99.90;;;;;;5084760;28;20107;-77
2021/01/09 04:11:42;;;;;;;4.60;2.53;;;1.80;99.90;;;;;;5066911;28;20021;-78
2021/01/09 04:14:08;;;;;;;4.13;2.38;;;1.80;99.90;;;;;;5067088;28;20024;-78
2021/01/09 04:16:36;;;;;;;7.97;3.70;;;1.80;99.90;;;;;;5084806;28;20029;-79
2021/01/09 04:19:03;;;;;;;5.50;2.75;;;1.80;99.90;;;;;;5066843;28;20039;-79
2021/01/09 04:21:29;;;;;;;3.58;1.80;;;1.80;99.90;;;;;;5085103;28;20060;-78
2021/01/09 04:23:55;;;;;;;4.88;2.67;;;1.80;99.90;;;;;;5066530;28;20051;-78
2021/01/09 04:26:21;;;;;;;5.57;2.08;;;1.90;99.90;;;;;;5084831;28;20032;-78
2021/01/09 04:28:46;;;;;;;6.47;2.10;;;1.90;99.90;;;;;;5066911;28;20032;-79
2021/01/09 04:31:15;;;;;;;8.20;2.92;;;1.90;99.90;;;;;;5084600;28;20089;-78
2021/01/09 04:33:41;;;;;;;7.30;3.00;;;1.90;99.90;;;;;;5085028;28;20024;-77
2021/01/09 04:36:07;;;;;;;6.05;2.92;;;1.90;99.90;;;;;;5066817;28;20092;-78
2021/01/09 04:38:33;;;;;;;11.90;3.22;;;1.90;99.90;;;;;;5087104;28;20044;-78
2021/01/09 04:40:59;;;;;;;6.15;3.22;;;1.90;99.90;;;;;;5088974;28;20086;-79
2021/01/09 04:43:26;;;;;;;4.40;2.63;;;1.90;99.90;;;;;;5088394;28;20082;-78
2021/01/09 04:45:52;;;;;;;4.35;2.60;;;1.90;99.90;;;;;;5086946;28;20108;-79
2021/01/09 04:48:19;;;;;;;6.30;2.22;;;1.90;99.90;;;;;;5070553;28;20029;-77
2021/01/09 04:50:50;;;;;;;4.97;2.60;;;1.90;99.90;;;;;;5070180;28;20063;-78
2021/01/09 04:53:18;;;;;;;8.75;2.40;;;1.90;99.90;;;;;;5070297;28;20044;-78
2021/01/09 04:55:45;;;;;;;8.98;4.20;;;1.90;99.90;;;;;;5070598;28;20078;-78
2021/01/09 04:58:11;;;;;;;10.10;3.28;;;1.90;99.90;;;;;;5088488;28;20093;-78
2021/01/09 05:00:37;;;;;;;9.63;3.45;;;1.90;99.90;;;;;;5070043;28;20056;-80
2021/01/09 05:03:04;;;;;;;5.82;2.55;;;1.90;99.90;;;;;;5070518;28;20031;-78
2021/01/09 05:05:29;;;;;;;4.88;2.40;;;1.90;99.90;;;;;;5069944;28;20145;-80
2021/01/09 05:07:56;;;;;;;7.75;3.35;;;1.90;99.90;;;;;;5088298;28;20342;-79
2021/01/09 05:10:22;;;;;;;6.90;3.00;;;2.00;99.90;;;;;;5088456;28;20084;-80
2021/01/09 05:12:48;;;;;;;5.38;2.72;;;2.00;99.90;;;;;;5070055;28;20377;-79
2021/01/09 05:15:14;;;;;;;6.30;3.10;;;2.00;99.90;;;;;;5088027;28;20027;-79
2021/01/09 05:17:40;;;;;;;7.22;2.53;;;2.10;99.90;;;;;;5088033;28;20016;-78
2021/01/09 05:20:08;;;;;;;5.75;2.45;;;2.00;99.90;;;;;;5069508;28;20029;-79
2021/01/09 05:22:38;;;;;;;4.95;2.58;;;2.00;99.90;;;;;;5088400;28;20020;-80
2021/01/09 05:25:05;;;;;;;5.10;2.88;;;2.00;99.90;;;;;;5087917;28;20040;-79
2021/01/09 05:27:32;;;;;;;5.18;2.78;;;2.00;99.90;;;;;;5069701;28;20077;-78
2021/01/09 05:29:58;;;;;;;5.72;2.85;;;2.00;99.90;;;;;;5087964;28;20036;-78
2021/01/09 05:32:24;;;;;;;9.85;2.60;;;2.00;99.90;;;;;;5069841;28;20033;-78
2021/01/09 05:34:52;;;;;;;7.53;2.95;;;2.10;99.90;;;;;;5069488;28;20021;-79
2021/01/09 05:37:23;;;;;;;7.50;2.85;;;2.10;99.90;;;;;;5088083;28;20035;-79
2021/01/09 05:39:54;;;;;;;10.15;3.17;;;2.10;99.90;;;;;;5087456;28;20051;-79
2021/01/09 05:42:27;;;;;;;9.75;2.88;;;2.10;99.90;;;;;;5087864;28;20021;-79
2021/01/09 05:44:54;;;;;;;7.10;3.20;;;2.10;99.90;;;;;;5071030;28;20063;-78
2021/01/09 05:47:25;;;;;;;6.63;3.05;;;2.00;99.90;;;;;;5071135;28;20029;-79
2021/01/09 05:49:53;;;;;;;5.53;2.67;;;2.00;99.90;;;;;;5070747;28;20024;-81
2021/01/09 05:52:24;;;;;;;5.60;2.92;;;2.10;99.90;;;;;;5089914;28;20111;-79
2021/01/09 05:54:57;;;;;;;5.43;2.47;;;2.00;99.90;;;;;;5071024;28;20029;-79
2021/01/09 05:57:28;;;;;;;6.93;4.20;;;2.10;99.90;;;;;;5069311;28;20032;-79
2021/01/09 05:59:57;;;;;;;7.60;3.45;;;2.10;99.90;;;;;;5087445;28;20035;-79
2021/01/09 06:02:24;;;;;;;7.28;2.72;;;2.20;99.90;;;;;;5068872;28;20024;-79
2021/01/09 06:04:54;;;;;;;16.52;2.47;;;2.10;99.90;;;;;;5069044;28;20043;-79
2021/01/09 06:07:24;;;;;;;4.78;2.60;;;2.10;99.90;;;;;;5086835;28;20025;-79
2021/01/09 06:10:00;;;;;;;12.27;3.17;;;2.10;99.90;;;;;;5086873;28;20111;-80
2021/01/09 06:12:27;;;;;;;5.70;3.15;;;2.20;99.90;;;;;;5085996;28;20495;-79
2021/01/09 06:14:54;;;;;;;7.75;3.63;;;2.20;99.90;;;;;;5068547;28;20051;-79
2021/01/09 06:17:23;;;;;;;7.10;3.13;;;2.10;99.90;;;;;;5086853;28;20017;-79
2021/01/09 06:19:50;;;;;;;6.10;3.00;;;2.20;99.90;;;;;;5068908;28;20032;-79
2021/01/09 06:22:16;;;;;;;7.90;3.10;;;2.20;99.90;;;;;;5068374;28;20024;-79
2021/01/09 06:24:42;;;;;;;4.53;2.97;;;2.10;99.90;;;;;;5068765;28;20028;-80
2021/01/09 06:27:16;;;;;;;4.97;2.45;;;2.20;99.90;;;;;;5068753;28;20040;-79
2021/01/09 06:29:48;;;;;;;6.13;2.55;;;2.10;99.90;;;;;;5067798;28;20043;-77
2021/01/09 06:32:18;;;;;;;7.40;2.97;;;2.20;99.90;;;;;;5083266;28;20036;-79
2021/01/09 06:34:44;;;;;;;6.40;2.40;;;2.10;99.90;;;;;;5069444;28;20052;-78
2021/01/09 06:37:10;;;;;;;8.50;3.33;;;2.20;99.90;;;;;;5106417;28;20028;-78
2021/01/09 06:39:38;;;;;;;12.15;3.33;;;2.20;99.90;;;;;;5100195;28;20284;-79
2021/01/09 06:42:06;;;;;;;12.68;3.50;;;2.20;99.90;;;;;;5080474;28;20032;-79
2021/01/09 06:44:32;;;;;;;8.20;3.13;;;2.20;99.90;;;;;;5106254;28;20052;-79
2021/01/09 06:46:58;;;;;;;5.70;2.50;;;2.20;99.90;;;;;;5106767;28;20021;-78
2021/01/09 06:49:28;;;;;;;8.43;3.28;;;2.20;99.90;;;;;;5087797;28;20024;-79
2021/01/09 06:52:02;;;;;;;10.40;3.72;;;2.20;99.90;;;;;;5106458;28;20380;-78
2021/01/09 06:54:39;;;;;;;6.47;3.22;;;2.20;99.90;;;;;;5086934;28;20036;-80
2021/01/09 06:57:05;;;;;;;7.53;3.50;;;2.20;99.90;;;;;;5105715;28;20036;-80
2021/01/09 06:59:42;;;;;;;6.18;2.85;;;2.20;99.90;;;;;;5088438;28;20060;-78
2021/01/09 07:02:24;;;;;;;7.20;3.20;;;2.30;99.90;;;;;;5086258;28;20028;-81
2021/01/09 07:05:09;;;;;;;7.32;3.28;;;2.30;99.90;;;;;;5093388;28;20116;-81
2021/01/09 07:07:50;;;;;;;5.22;2.90;;;2.20;99.90;;;;;;5086061;28;20052;-79
2021/01/09 07:10:26;;;;;;;8.32;3.85;;;2.20;99.90;;;;;;5067582;28;20096;-78
2021/01/09 07:13:07;;;;;;;4.65;2.75;;;2.20;99.90;;;;;;5067715;28;20027;-79
2021/01/09 07:15:35;;;;;;;6.20;3.25;;;2.20;99.90;;;;;;5067233;28;20541;-80
2021/01/09 07:18:04;;;;;;;5.85;3.15;;;2.30;99.90;;;;;;5085560;28;20039;-78
2021/01/09 07:20:35;;;;;;;6.32;3.17;;;2.20;99.90;;;;;;5067581;28;20040;-77
2021/01/09 07:23:07;;;;;;;4.85;2.85;;;2.20;99.90;;;;;;5084495;28;20082;-81
2021/01/09 07:25:35;;;;;;;9.23;3.92;;;2.20;99.90;;;;;;5066614;28;20423;-80
2021/01/09 07:28:10;;;;;;;3.72;1.85;;;2.20;99.90;;;;;;5067759;28;20020;-82
2021/01/09 07:30:35;;;;;;;8.73;3.33;;;2.20;99.90;;;;;;5084957;28;20028;-79
2021/01/09 07:33:01;;;;;;;3.75;2.58;;;2.20;99.90;;;;;;5067288;28;20032;-79
2021/01/09 07:35:27;;;;;;;7.38;3.90;;;2.20;99.90;;;;;;5067413;28;20447;-80
2021/01/09 07:38:02;;;;;;;5.63;3.00;;;2.20;99.90;;;;;;5085204;28;20036;-80
2021/01/09 07:40:54;;;;;;;5.50;2.58;;;2.10;99.90;;;;;;5067211;28;20055;-83
2021/01/09 07:43:42;;;;;;;9.88;4.13;;;2.10;99.90;;;;;;5061715;28;20050;-82
2021/01/09 07:46:30;;;;;;;8.25;3.15;;;2.10;99.90;;;;;;5084433;28;20040;-80
2021/01/09 07:48:58;;;;;;;6.40;2.28;;;2.10;99.90;;;;;;5067269;28;20100;-79
2021/01/09 07:51:49;;;;;;;7.13;3.20;;;2.10;99.90;;;;;;5067116;28;20032;-79
2021/01/09 07:54:36;;;;;;;5.03;2.65;;;2.10;99.90;;;;;;5083586;28;20392;-80
2021/01/09 07:57:17;;;;;;;6.00;3.08;;;2.10;99.90;;;;;;5084236;28;20059;-79
2021/01/09 07:59:53;;;;;;;8.98;3.80;;;2.10;99.90;;;;;;5081237;28;20647;-80
2021/01/09 08:02:26;;;;;;;6.45;3.05;;;2.10;99.90;;;;;;5083888;28;20028;-82
2021/01/09 08:05:20;;;;;;;6.32;3.85;;;2.00;99.90;;;;;;5081133;28;20043;-82
2021/01/09 08:07:57;;;;;;;6.40;2.63;;;2.00;99.90;;;;;;5103927;28;20028;-81
2021/01/09 08:10:31;;;;;;;6.60;2.88;;;2.00;99.90;;;;;;5073577;28;20472;-80
2021/01/09 08:13:08;;;;;;;4.07;2.40;;;2.00;99.90;;;;;;5095278;28;20452;-80
2021/01/09 08:15:35;;;;;;;5.53;2.92;;;2.00;99.90;;;;;;5098174;28;20040;-81
2021/01/09 08:18:04;;;;;;;5.00;2.67;;;2.00;99.90;;;;;;5100475;28;20024;-80
2021/01/09 08:20:30;;;;;;;6.45;2.72;;;2.00;99.90;;;;;;5075499;28;20039;-81
2021/01/09 08:23:03;;;;;;;7.13;3.63;;;1.90;99.90;;;;;;5094515;28;20024;-80
2021/01/09 08:25:38;;;;;;;7.22;3.88;;;1.90;99.90;;;;;;5088705;28;20046;-81
2021/01/09 08:28:07;;;;;;;6.63;3.20;;;1.90;99.90;;;;;;5070777;28;20077;-82
2021/01/09 08:30:41;;;;;;;10.02;4.70;;;1.90;99.90;;;;;;5084301;28;20032;-81
2021/01/09 08:33:09;;;;;;;7.35;4.55;;;2.10;99.90;;;;;;5088862;28;20028;-81
2021/01/09 08:35:38;;;;;;;9.15;3.83;;;2.40;99.90;;;;;;5088457;28;20380;-81
2021/01/09 08:38:05;;;;;;;10.57;2.25;;;2.90;99.90;;;;;;5089017;28;20024;-81
2021/01/09 08:40:32;;;;;;;5.32;2.80;;;3.30;99.90;;;;;;5089062;28;20024;-80
2021/01/09 08:43:01;;;;;;;5.82;2.85;;;3.60;99.90;;;;;;5088423;28;20075;-80
2021/01/09 08:45:49;;;;;;;6.07;3.42;;;4.00;99.90;;;;;;5089414;28;20043;-80
2021/01/09 08:48:21;;;;;;;7.18;3.72;;;4.30;99.90;;;;;;5089180;28;20032;-82
2021/01/09 08:51:10;;;;;;;4.55;2.35;;;4.50;99.90;;;;;;5088113;28;20024;-82
2021/01/09 08:53:50;;;;;;;7.88;2.78;;;4.60;99.90;;;;;;5088886;28;20027;-82
2021/01/09 08:56:18;;;;;;;7.18;3.13;;;4.60;99.90;;;;;;5088381;28;20017;-82
2021/01/09 08:58:45;;;;;;;3.90;2.30;;;4.70;99.90;;;;;;5087244;28;20121;-82
2021/01/09 09:01:13;;;;;;;4.90;2.83;;;4.70;99.90;;;;;;5080125;28;20039;-82
2021/01/09 09:03:49;;;;;;;5.47;2.25;;;4.70;99.90;;;;;;5080115;28;20028;-82
2021/01/09 09:06:34;;;;;;;5.00;2.60;;;4.70;99.90;;;;;;5084660;28;20107;-82
2021/01/09 09:09:04;;;;;;;8.90;3.17;;;4.70;99.90;;;;;;5078892;28;20138;-82
2021/01/09 09:11:30;;;;;;;5.30;2.72;;;4.70;99.90;;;;;;5082974;28;20069;-83
2021/01/09 09:14:09;;;;;;;4.78;2.63;;;4.80;99.90;;;;;;5102136;28;20032;-81
2021/01/09 09:16:40;;;;;;;5.22;2.05;;;4.80;99.90;;;;;;5089166;28;20058;-81
2021/01/09 09:19:16;;;;;;;4.30;2.25;;;4.80;99.90;;;;;;5106539;28;20510;-81
2021/01/09 09:21:47;;;;;;;5.70;2.90;;;4.90;99.90;;;;;;5107286;28;20024;-81
2021/01/09 09:24:14;;;;;;;6.32;3.28;;;5.10;99.90;;;;;;5087873;28;20036;-81
2021/01/09 09:26:42;;;;;;;3.47;1.73;;;5.30;99.90;;;;;;5103482;28;20059;-81
2021/01/09 09:29:09;;;;;;;2.42;1.67;;;5.60;99.90;;;;;;5085788;28;20032;-81
2021/01/09 09:31:40;;;;;;;7.70;1.92;;;6.00;99.90;;;;;;5086865;28;20028;-81
2021/01/09 09:34:16;;;;;;;3.10;1.63;;;6.10;99.90;;;;;;5068155;28;20124;-81
2021/01/09 09:36:47;;;;;;;10.27;2.15;;;5.80;99.90;;;;;;5068854;28;20051;-80
2021/01/09 09:39:24;;;;;;;3.45;1.73;;;5.60;99.90;;;;;;5085358;28;20032;-81
2021/01/09 09:41:52;;;;;;;2.58;1.65;;;5.50;99.90;;;;;;5094244;28;20032;-80
2021/01/09 09:44:20;;;;;;;3.75;1.92;;;5.90;99.90;;;;;;5095281;28;20101;-82
2021/01/09 09:46:53;;;;;;;4.55;2.05;;;5.90;99.90;;;;;;5077245;28;20032;-84
2021/01/09 09:49:22;;;;;;;3.97;1.75;;;5.70;99.90;;;;;;5084558;28;20439;-81
2021/01/09 09:51:48;;;;;;;3.28;2.15;;;5.40;99.90;;;;;;5079938;28;20047;-81
2021/01/09 09:54:14;;;;;;;3.75;1.67;;;5.10;99.90;;;;;;5068510;28;20047;-80
2021/01/09 09:56:43;;;;;;;10.23;5.78;;;4.90;99.90;;;;;;5086606;28;20044;-81
2021/01/09 09:59:11;;;;;;;5.70;2.20;;;4.90;99.90;;;;;;5067923;28;20385;-83
2021/01/09 10:01:38;;;;;;;3.05;2.05;;;5.10;99.90;;;;;;5083876;28;20023;-81
2021/01/09 10:04:14;;;;;;;6.30;2.45;;;5.50;99.90;;;;;;5088017;28;20062;-82
2021/01/09 10:06:40;;;;;;;2.17;1.48;;;5.50;99.90;;;;;;5086529;28;20024;-83
2021/01/09 10:09:17;;;;;;;4.30;1.55;;;5.50;99.90;;;;;;5087539;28;20028;-82
2021/01/09 10:11:44;;;;;;;3.22;1.73;;;5.20;99.90;;;;;;5088902;28;20074;-82
2021/01/09 10:14:10;;;;;;;3.15;2.13;;;5.00;99.90;;;;;;5091680;28;20024;-81
2021/01/09 10:16:37;;;;;;;6.30;2.47;;;4.80;99.90;;;;;;5088340;28;20035;-81
2021/01/09 10:19:05;;;;;;;3.92;1.95;;;4.60;99.90;;;;;;5106493;28;20042;-81
2021/01/09 10:21:32;;;;;;;3.63;2.05;;;4.50;99.90;;;;;;5108245;28;20062;-79
2021/01/09 10:23:59;;;;;;;4.80;2.00;;;4.30;99.90;;;;;;5090459;28;20401;-80
2021/01/09 10:26:30;;;;;;;3.30;1.85;;;4.30;99.90;;;;;;5107102;28;20479;-79
2021/01/09 10:28:56;;;;;;;5.20;2.47;;;4.10;99.90;;;;;;5108052;28;20054;-79
2021/01/09 10:31:28;;;;;;;3.60;2.25;;;4.00;99.90;;;;;;5089539;28;20031;-80
2021/01/09 10:33:54;;;;;;;4.60;2.25;;;4.00;99.90;;;;;;5087062;28;20062;-78
2021/01/09 10:36:28;;;;;;;3.05;1.77;;;4.10;99.90;;;;;;5087371;28;20028;-79
2021/01/09 10:38:54;;;;;;;7.00;2.08;;;4.10;99.90;;;;;;5087919;28;20067;-79
2021/01/09 10:41:20;;;;;;;3.88;2.25;;;4.00;99.90;;;;;;5106250;28;20028;-81
2021/01/09 10:43:46;;;;;;;4.30;2.42;;;4.00;99.90;;;;;;5106313;28;20048;-80
2021/01/09 10:46:19;;;;;;;3.70;2.17;;;4.10;99.90;;;;;;5087533;28;20117;-79
2021/01/09 10:48:45;;;;;;;5.30;2.10;;;4.30;99.90;;;;;;5105569;28;20052;-80
2021/01/09 10:51:15;;;;;;;5.78;2.03;;;4.30;99.90;;;;;;5087669;28;20031;-80
2021/01/09 10:53:40;;;;;;;5.20;2.63;;;4.40;99.90;;;;;;5087414;28;20096;-82
2021/01/09 10:56:06;;;;;;;3.42;1.88;;;4.40;99.90;;;;;;5087583;28;20028;-81
2021/01/09 10:58:32;;;;;;;4.50;2.17;;;4.30;99.90;;;;;;5105451;28;20497;-81
2021/01/09 11:00:57;;;;;;;3.78;1.85;;;4.30;99.90;;;;;;5105296;28;20020;-80
2021/01/09 11:03:23;;;;;;;4.30;1.35;;;4.30;99.90;;;;;;5086884;28;20020;-81
2021/01/09 11:05:48;;;;;;;6.65;1.77;;;4.30;99.90;;;;;;5087045;28;20121;-81
2021/01/09 11:08:14;;;;;;;2.67;1.58;;;4.30;99.90;;;;;;5086220;28;20034;-79
2021/01/09 11:10:40;;;;;;;3.10;1.42;;;4.30;99.90;;;;;;5086520;28;20047;-82
2021/01/09 11:13:06;;;;;;;4.05;1.88;;;4.30;99.90;;;;;;5085284;28;20028;-81
2021/01/09 11:15:31;;;;;;;3.88;2.03;;;4.40;99.90;;;;;;5105488;28;20028;-81
2021/01/09 11:17:57;;;;;;;4.05;1.88;;;4.40;99.90;;;;;;5105437;28;20150;-80
2021/01/09 11:20:23;;;;;;;3.63;1.70;;;4.30;99.90;;;;;;5105403;28;21100;-80
2021/01/09 11:22:48;;;;;;;4.47;1.88;;;4.20;99.90;;;;;;5104837;28;20024;-80
2021/01/09 11:25:14;;;;;;;4.00;1.75;;;4.30;99.90;;;;;;5087273;28;20043;-86
2021/01/09 11:27:39;;;;;;;5.65;2.30;;;4.30;99.90;;;;;;5086813;28;20484;-80
2021/01/09 11:30:06;;;;;;;4.50;2.60;;;4.30;99.90;;;;;;5086394;28;20164;-77
2021/01/09 11:32:32;;;;;;;3.53;1.85;;;4.30;99.90;;;;;;5087193;28;20427;-84
2021/01/09 11:34:58;;;;;;;2.65;1.70;;;4.20;99.90;;;;;;5086647;28;20077;-78
2021/01/09 11:37:24;;;;;;;2.13;1.42;;;4.20;99.90;;;;;;5104537;28;20035;-80
2021/01/09 11:39:50;;;;;;;2.95;1.70;;;4.10;99.90;;;;;;5087066;28;20032;-81
2021/01/09 11:42:16;;;;;;;4.68;2.28;;;4.10;99.90;;;;;;5086362;28;20782;-80
2021/01/09 11:44:41;;;;;;;4.88;2.33;;;4.00;99.90;;;;;;5104201;28;20090;-77
2021/01/09 11:47:07;;;;;;;3.05;1.77;;;4.10;99.90;;;;;;5104295;28;20028;-78
2021/01/09 11:49:33;;;;;;;2.85;1.48;;;4.10;99.90;;;;;;5086497;28;20028;-78
2021/01/09 11:52:02;;;;;;;2.17;1.52;;;4.20;99.90;;;;;;5086542;28;20052;-77
2021/01/09 11:54:28;;;;;;;4.55;1.90;;;4.20;99.90;;;;;;5104911;28;20379;-77
2021/01/09 11:56:56;;;;;;;3.45;2.17;;;4.20;99.90;;;;;;5104189;28;20032;-79
2021/01/09 11:59:22;;;;;;;4.35;2.17;;;4.30;99.90;;;;;;5104167;28;20032;-78
2021/01/09 12:01:48;;;;;;;3.30;1.95;;;4.40;99.90;;;;;;5103936;28;20060;-78
2021/01/09 12:04:14;;;;;;;4.55;1.45;;;4.40;99.90;;;;;;5103595;28;20039;-77
2021/01/09 12:06:39;;;;;;;3.90;2.00;;;4.40;99.90;;;;;;5085680;28;20567;-78
2021/01/09 12:09:05;;;;;;;4.22;1.83;;;4.30;99.90;;;;;;5103149;28;20024;-81
2021/01/09 12:11:32;;;;;;;3.33;1.85;;;4.30;99.90;;;;;;5085383;28;20124;-78
2021/01/09 12:13:58;;;;;;;4.70;2.15;;;4.40;99.90;;;;;;5120291;28;20020;-80
2021/01/09 12:16:31;;;;;;;2.00;1.10;;;4.40;99.90;;;;;;5084599;28;20028;-82
2021/01/09 12:18:57;;;;;;;2.40;1.35;;;4.40;99.90;;;;;;5104305;28;20034;-82
2021/01/09 12:21:28;;;;;;;4.18;2.15;;;4.50;99.90;;;;;;5085438;28;20142;-82
2021/01/09 12:23:55;;;;;;;4.15;1.80;;;4.40;99.90;;;;;;5082661;28;20043;-82
2021/01/09 12:26:20;;;;;;;2.63;1.25;;;4.40;99.90;;;;;;5086706;28;20036;-79
2021/01/09 12:28:46;;;;;;;4.03;2.10;;;4.30;99.90;;;;;;5104180;28;20042;-79
2021/01/09 12:31:12;;;;;;;5.07;1.90;;;4.10;99.90;;;;;;5105869;28;20018;-79
2021/01/09 12:33:39;;;;;;;6.70;2.08;;;4.00;99.90;;;;;;5107579;28;20046;-80
2021/01/09 12:36:06;;;;;;;2.63;1.33;;;3.90;99.90;;;;;;5107473;28;20024;-78
2021/01/09 12:38:31;;;;;;;3.85;1.48;;;3.90;99.90;;;;;;5088261;28;20020;-77
2021/01/09 12:40:57;;;;;;;3.97;1.92;;;3.90;99.90;;;;;;5087073;28;20468;-80
2021/01/09 12:43:22;;;;;;;6.18;2.38;;;3.90;99.90;;;;;;5090175;28;20040;-80
2021/01/09 12:45:48;;;;;;;2.95;1.30;;;4.00;99.90;;;;;;5094798;28;20032;-81
2021/01/09 12:48:13;;;;;;;3.22;1.15;;;4.00;99.90;;;;;;5089379;28;20070;-79
2021/01/09 12:50:42;;;;;;;4.47;1.67;;;4.00;99.90;;;;;;5107338;28;20030;-80
2021/01/09 12:53:08;;;;;;;3.45;1.80;;;4.00;99.90;;;;;;5123065;28;20032;-81
2021/01/09 12:55:36;;;;;;;3.47;1.90;;;4.10;99.90;;;;;;5123244;28;20054;-81
2021/01/09 12:58:02;;;;;;;3.10;1.50;;;4.10;99.90;;;;;;5088855;28;20038;-78
2021/01/09 13:00:28;;;;;;;5.25;1.80;;;4.10;99.90;;;;;;5110733;28;20028;-80
2021/01/09 13:02:53;;;;;;;4.18;1.98;;;4.30;99.90;;;;;;5110068;28;20032;-80
2021/01/09 13:05:19;;;;;;;1.70;1.20;;;4.20;99.90;;;;;;5091142;28;20058;-78